Portada
METAR-TAF:

METAR-TAF

Aeroports :

Hagåtña, Guam, Estats Units d'Amèrica

latitud: 13-29N, longitud: 144-48E, altitud: 91 m

Observació

L'informe es va fer fa 32 minuts, a les 02:54 UTC
Vent 9 kt del Sud-Oest amb ràfegues de 16 kt
Temperatura 30°C
Humitat 75%
Pressió 1010 hPa
Visibilitat: 16.1 km
Escasses núvols a una alçada de 6500 ft

METAR: PGUM 220254Z 22009G16KT 10SM FEW065 30/25 A2983 RMK AO2 SLP093 T03000250 58015

Hora: 13:26 (03:26 UTC)

Pronòstic

L'informe es va fer fa 4 hores i 3 minuts, a les 23:23 UTC
Pronòstic vàlid del 22 a les 00 UTC al 23 a les 06 UTC
Vent 10 kt del Sud/Sud-Oest
Visibilitat: 10 km
Núvols disperses a una alçada de 3000 ft
Núvols disperses a una alçada de 5000 ft
Cel ennuvolat a una alçada de 10000 ft
xàfecs en les proximitats
Temporalment
l' 22 a les 00 UTC al 22 a les 04 UTC
Cel ennuvolat a una alçada de 2000 ft
xàfecs de pluja

TAF: PGUM 212323Z 2200/2306 21010KT P6SM VCSH SCT030 SCT050 BKN100 TEMPO 2200/2204 -SHRA BKN020

Observacions i pronòstics meteorològics de més de 4000 aeroports (METAR i TAF).

Les estacions disponibles són els punts grocs i vermells al mapa.

Posi el ratolí al punt desitjat per veure el nom de l'estació.

Feu clic per veure les observacions i els pronòstics meteorològics.

Per canviar el mapa: feu clic els botons verds amb una creu de color negre per apropar; al botó verd amb un guió per allunyar la imatge; o en les fletxes verdes per a mapes adjacents.


METAR-TAF: